• Join FlightAware (Why Join?)
  • Login
  • US Flag 
11:43PM EDT


 

Airport Tracker/Info


-or-


 

Live Flight TrackerFlight Track Log ✈ N137TK ✈ 16-Aug-2013 ✈ KAVL - KAPF

Flight Track Log - Related Links

Times and Time Zones

All times are in EDT time to prevent confusion due to time zone crossing. See the N137TK flight status page for this flight to view local times or setup timezone preferences in your user account.

Time Position Orientation Groundspeed Altitude Reporting Facility
EDT Latitude Longitude Course Direction KTS MPH feet Rate Location/Type
12:44PM 35.3500 -82.5161 180° South 169 194 5,900  Level Atlanta Center
12:45PM 35.2997 -82.5017 167° South 175 201 7,900 1,800 Climbing Atlanta Center
12:46PM 35.2539 -82.5025 181° South 187 215 9,500 1,560 Climbing Atlanta Center
12:47PM 35.2039 -82.5036 181° South 181 208 11,100 1,500 Climbing Atlanta Center
12:48PM 35.0327 -82.5333 180° South  Level FlightAware Approximate
12:48PM 35.1558 -82.5019 178° South 186 214 12,600  Level Atlanta Center
12:49PM 34.9660 -82.5333 180° South  Level FlightAware Approximate
12:49PM 35.1036 -82.4978 176° South 186 214 14,200  Level Atlanta Center
12:50PM 35.0536 -82.5011 183° South 186 214 15,800 1,440 Climbing Atlanta Center
12:51PM 35.0033 -82.5022 181° South 181 208 17,100 1,200 Climbing Atlanta Center
12:52PM 34.9533 -82.5031 181° South 181 208 18,200 1,200 Climbing Atlanta Center
12:53PM 34.8969 -82.4989 177° South 181 208 19,600 1,320 Climbing Atlanta Center
12:54PM 34.8447 -82.5025 183° South 181 208 20,900 1,260 Climbing Atlanta Center
12:55PM 34.7989 -82.5008 178° South 176 203 22,200 1,200 Climbing Atlanta Center
12:56PM 34.7550 -82.5017 181° South 171 197 23,300 900 Climbing Atlanta Center
12:57PM 34.7114 -82.5025 181° South 165 190 24,000 840 Climbing Atlanta Center
12:58PM 34.6653 -82.5033 181° South 160 184 25,000 960 Climbing Atlanta Center
12:59PM 34.6214 -82.4989 175° South 160 184 26,000 840 Climbing Atlanta Center
01:00PM 34.5756 -82.5025 184° South 160 184 26,700 720 Climbing Atlanta Center
01:01PM 34.5317 -82.5008 178° South 160 184 27,500 600 Climbing Atlanta Center
01:02PM 34.4881 -82.5014 181° South 160 184 28,000 240 Climbing Atlanta Center
01:03PM 34.4358 -82.5025 181° South 171 197 28,000  Level Atlanta Center
01:04PM 34.3753 -82.5011 179° South 194 223 28,000  Level Atlanta Center
01:05PM 34.3147 -82.5022 181° South 210 242 28,000  Level Atlanta Center
01:06PM 34.2500 -82.5033 181° South 224 258 28,000  Level Atlanta Center
01:07PM 34.1853 -82.5019 179° South 236 272 28,000  Level Atlanta Center
01:08PM 34.1228 -82.5031 181° South 236 272 28,000  Level Atlanta Center
01:09PM 34.0600 -82.5017 179° South 243 280 28,000  Level Atlanta Center
01:10PM 33.9911 -82.5006 179° South 238 274 28,000  Level Atlanta Center
01:11PM 33.9203 -82.5017 181° South 238 274 28,000  Level Atlanta Center
01:12PM 33.8536 -82.5031 181° South 238 274 28,000  Level Atlanta Center
01:13PM 33.7908 -82.5042 181° South 232 267 28,000  Level Atlanta Center
01:14PM 33.7219 -82.5053 181° South 232 267 28,000  Level Atlanta Center
01:15PM 33.6697 -82.5036 178° South 233 268 28,000  Level Atlanta Center
01:16PM 33.5883 -82.5028 180° South 234 269 28,000  Level Atlanta Center
01:17PM 33.5197 -82.5064 183° South 234 269 28,000  Level Atlanta Center
01:18PM 33.4528 -82.5075 181° South 234 269 28,000  Level Atlanta Center
01:19PM 33.3819 -82.5064 179° South 245 282 28,000  Level Atlanta Center
01:20PM 33.3172 -82.5050 179° South 245 282 28,000  Level Atlanta Center
01:21PM 33.2525 -82.5061 181° South 240 276 28,000  Level Atlanta Center
01:22PM 33.1814 -82.5050 179° South 240 276 28,000  Level Atlanta Center
01:23PM 33.1125 -82.5061 181° South 246 283 28,000  Level Atlanta Center
01:24PM 33.0458 -82.5050 179° South 246 283 28,000  Level Atlanta Center
01:25PM 32.9789 -82.5061 181° South 246 283 28,000  Level Atlanta Center
01:26PM 32.9081 -82.5047 179° South 251 289 28,000  Level Atlanta Center
01:27PM 32.8411 -82.5058 181° South 251 289 28,000  Level Atlanta Center
01:28PM 32.7722 -82.5072 181° South 251 289 28,000  Level Atlanta Center
01:29PM 32.7033 -82.5058 179° South 251 289 28,000  Level Atlanta Center
01:31PM 32.5417 -82.5056 180° South 253 291 28,000  Level Jacksonville Center
01:32PM 32.4728 -82.5058 180° South 253 291 28,000  Level Jacksonville Center
01:33PM 32.3978 -82.5039 179° South 248 285 28,000  Level Jacksonville Center
01:34PM 32.3289 -82.5067 182° South 254 292 28,000  Level Jacksonville Center
01:35PM 32.2558 -82.5069 180° South 254 292 28,000  Level Jacksonville Center
01:36PM 32.1847 -82.5072 180° South 254 292 28,000  Level Jacksonville Center
01:37PM 32.1283 -82.5075 180° South 254 292 28,000  Level Jacksonville Center
01:38PM 32.0492 -82.5078 180° South 254 292 28,000  Level Jacksonville Center
01:39PM 31.9781 -82.5081 180° South 254 292 28,000  Level Jacksonville Center
01:40PM 31.9069 -82.5058 178° South 254 292 28,000  Level Jacksonville Center
01:41PM 31.8381 -82.5086 182° South 254 292 28,000  Level Jacksonville Center
01:42PM 31.7672 -82.5064 178° South 254 292 28,000  Level Jacksonville Center
01:43PM 31.6961 -82.5067 180° South 254 292 28,000  Level Jacksonville Center
01:44PM 31.6272 -82.5069 180° South 254 292 28,000  Level Jacksonville Center
01:45PM 31.5564 -82.5075 180° South 254 292 28,000  Level Jacksonville Center
01:46PM 31.4872 -82.4931 170° South 254 292 28,000  Level Jacksonville Center
01:47PM 31.4183 -82.4739 167° South 254 292 28,000  Level Jacksonville Center
01:48PM 31.3472 -82.4594 170° South 259 298 28,000  Level Jacksonville Center
01:49PM 31.2783 -82.4406 167° South 259 298 28,000  Level Jacksonville Center
01:50PM 31.2094 -82.4214 167° South 259 298 28,000  Level Jacksonville Center
01:51PM 31.1406 -82.4022 167° South 259 298 28,000  Level Jacksonville Center
01:52PM 31.0714 -82.3808 165° South 259 298 28,000  Level Jacksonville Center
01:53PM 31.0003 -82.3594 166° South 259 298 28,000  Level Jacksonville Center
01:54PM 30.9292 -82.3403 167° South 259 298 28,000  Level Jacksonville Center
01:55PM 30.8603 -82.3189 165° South 259 298 28,000  Level Jacksonville Center
01:56PM 30.7914 -82.3000 167° South 259 298 28,000  Level Jacksonville Center
01:57PM 30.7203 -82.2836 169° South 259 298 28,000  Level Jacksonville Center
01:58PM 30.6428 -82.2625 167° South 259 298 28,000  Level Jacksonville Center
01:59PM 30.5739 -82.2411 165° South 259 298 28,000  Level Jacksonville Center
02:00PM 30.5006 -82.2175 164° South 259 298 28,000  Level Jacksonville Center
02:01PM 30.4339 -82.1986 166° South 259 298 28,000  Level Jacksonville Center
02:02PM 30.3628 -82.1800 167° South 259 298 28,000  Level Jacksonville Center
02:03PM 30.2936 -82.1661 170° South 259 298 28,000  Level Jacksonville Center
02:04PM 30.2331 -82.1450 163° South 259 298 28,000  Level Jacksonville Center
02:05PM 30.1619 -82.1239 166° South 259 298 28,000  Level Jacksonville Center
02:06PM 30.0908 -82.1100 170° South 259 298 28,000  Level Jacksonville Center
02:07PM 30.0156 -82.0914 168° South 259 298 28,000  Level Jacksonville Center
02:08PM 29.9486 -82.0561 155° Southeast 259 298 28,000  Level Jacksonville Center
02:09PM 29.8814 -82.0206 155° Southeast 264 304 28,000  Level Jacksonville Center
02:10PM 29.8122 -81.9831 155° Southeast 269 310 28,000  Level Jacksonville Center
02:11PM 29.7431 -81.9500 157° South 274 315 28,000 -120 Level Jacksonville Center
02:12PM 29.6761 -81.9172 157° South 274 315 27,800 -360 Descending Jacksonville Center
02:13PM 29.6047 -81.8797 155° Southeast 274 315 27,300 -480 Descending Jacksonville Center
02:14PM 29.5314 -81.8447 157° South 274 315 26,900 -180 Descending Jacksonville Center
02:15PM 29.4622 -81.8119 158° South 274 315 27,000  Climbing Jacksonville Center
02:16PM 29.3931 -81.7794 158° South 274 315 27,000  Level Jacksonville Center
02:18PM 29.2897 -81.7358 160° South 269 310 27,000  Level Miami Center
02:19PM 29.2050 -81.7153 168° South 264 304 27,000  Level Miami Center
02:20PM 29.1408 -81.7006 169° South 259 298 27,000  Level Miami Center
02:21PM 29.0706 -81.6856 169° South 259 298 27,000  Level Miami Center
02:22PM 28.9978 -81.6778 175° South 259 298 27,000  Level Miami Center
02:23PM 28.9306 -81.6939 192° South 254 292 27,000  Level Miami Center
02:24PM 28.8608 -81.7167 196° South 259 298 27,000  Level Miami Center
02:25PM 28.7894 -81.7372 194° South 264 304 27,000  Level Miami Center
02:26PM 28.7239 -81.7606 197° South 259 298 27,000  Level Miami Center
02:27PM 28.6544 -81.7811 195° South 259 298 27,000  Level Miami Center
02:28PM 28.5850 -81.7992 193° South 264 304 27,000  Level Miami Center
02:29PM 28.5139 -81.7983 179° South 259 298 27,000 -240 Level Miami Center
02:30PM 28.4375 -81.7761 166° South 254 292 26,600 -720 Descending Miami Center
02:31PM 28.3611 -81.7564 167° South 277 319 25,600 -1,080 Descending Miami Center
02:32PM 28.2658 -81.7358 169° South 307 353 24,500 -1,020 Descending Miami Center
02:33PM 28.1808 -81.7178 169° South 314 361 23,600 -1,020 Descending Miami Center
02:34PM 28.0981 -81.7025 171° South 314 361 22,500 -1,080 Descending Miami Center
02:35PM 28.0131 -81.6847 170° South 314 361 21,500 -1,020 Descending Miami Center
02:36PM 27.9322 -81.6672 169° South 314 361 20,500 -1,020 Descending Miami Center
02:37PM 27.8453 -81.6494 170° South 314 361 19,500 -780 Descending Miami Center
02:38PM 27.7828 -81.6400 172° South 306 352 19,000 -420 Descending Miami Center
02:39PM 27.6894 -81.6219 170° South 295 339 18,700 -660 Descending Miami Center
02:40PM 27.6108 -81.6022 167° South 295 339 17,700 -1,020 Descending Miami Center
02:41PM 27.5300 -81.5872 171° South 295 339 16,700 -1,020 Descending Miami Center
02:42PM 27.4511 -81.5722 170° South 295 339 15,700 -1,140 Descending Miami Center
02:43PM 27.3744 -81.5550 169° South 295 339 14,500 -1,200 Descending Miami Center
02:44PM 27.2956 -81.5403 171° South 295 339 13,300 -1,200 Descending Miami Center
02:45PM 27.2169 -81.5231 169° South 295 339 12,100 -1,200 Descending Miami Center
02:46PM 27.1400 -81.5106 172° South 295 339 10,900 -1,200 Descending Miami Center
02:47PM 27.0614 -81.4933 169° South 295 339 9,700 -960 Descending Miami Center
02:48PM 26.9972 -81.4744 165° South 290 334 9,000 -540 Descending Miami Center
02:49PM 26.9283 -81.4694 176° South 265 305 8,700 -480 Descending Miami Center
02:50PM 26.8567 -81.4969 199° South 258 297 8,100 -660 Descending Miami Center
02:51PM 26.7931 -81.5292 204° Southwest 263 303 7,400 -600 Descending Miami Center
02:52PM 26.7233 -81.5544 198° South 269 310 7,000 -240 Descending Miami Center
02:53PM 26.6578 -81.5750 196° South 255 293 7,000  Level Miami Center
02:55PM 26.5565 -81.6154 200° South  Level Estimated
03:02PM 26.1524 -81.7756 200° South  Level Estimated
03:03PM 26.1524 -81.7756 36° Northeast  Level Estimated
03:04PM 26.1524 -81.7756 36° Northeast  Level Estimated
03:05PM 26.1524 -81.7756 36° Northeast  Level Estimated
03:06PM 26.1524 -81.7756 36° Northeast  Level Estimated
03:07PM 26.1524 -81.7756 36° Northeast  Level Estimated
03:08PM 26.1524 -81.7756 36° Northeast  Level Estimated
03:09PM 26.1524 -81.7756 36° Northeast  Level Estimated
03:10PM 26.1524 -81.7756 36° Northeast  Level Estimated
03:11PM 26.1524 -81.7756 36° Northeast  Level Estimated